sensor_id;sensor_type;location;lat;lon;timestamp;P1;durP1;ratioP1;P2;durP2;ratioP2
39778;SDS011;25454;49.878;8.618;2023-03-01T00:04:48;13.90;;;9.67;;
39778;SDS011;25454;49.878;8.618;2023-03-01T00:09:48;14.20;;;9.33;;
39778;SDS011;25454;49.878;8.618;2023-03-01T00:14:49;13.23;;;9.67;;
39778;SDS011;25454;49.878;8.618;2023-03-01T00:19:50;12.67;;;8.90;;
39778;SDS011;25454;49.878;8.618;2023-03-01T00:24:53;13.27;;;9.37;;
39778;SDS011;25454;49.878;8.618;2023-03-01T00:29:54;14.57;;;9.70;;
39778;SDS011;25454;49.878;8.618;2023-03-01T00:34:54;16.37;;;10.00;;
39778;SDS011;25454;49.878;8.618;2023-03-01T00:39:58;14.17;;;9.23;;
39778;SDS011;25454;49.878;8.618;2023-03-01T00:44:59;13.47;;;9.73;;
39778;SDS011;25454;49.878;8.618;2023-03-01T00:49:59;13.87;;;9.53;;
39778;SDS011;25454;49.878;8.618;2023-03-01T00:55:00;12.80;;;9.17;;
39778;SDS011;25454;49.878;8.618;2023-03-01T01:00:00;14.33;;;9.53;;
39778;SDS011;25454;49.878;8.618;2023-03-01T01:05:01;14.30;;;9.43;;
39778;SDS011;25454;49.878;8.618;2023-03-01T01:10:01;14.10;;;9.63;;
39778;SDS011;25454;49.878;8.618;2023-03-01T01:15:02;16.33;;;10.00;;
39778;SDS011;25454;49.878;8.618;2023-03-01T01:20:03;15.53;;;9.43;;
39778;SDS011;25454;49.878;8.618;2023-03-01T01:25:04;12.13;;;8.73;;
39778;SDS011;25454;49.878;8.618;2023-03-01T01:30:06;16.10;;;9.77;;
39778;SDS011;25454;49.878;8.618;2023-03-01T01:35:07;13.87;;;9.57;;
39778;SDS011;25454;49.878;8.618;2023-03-01T01:40:08;13.33;;;9.67;;
39778;SDS011;25454;49.878;8.618;2023-03-01T01:50:41;16.90;;;10.13;;
39778;SDS011;25454;49.878;8.618;2023-03-01T01:55:45;18.17;;;11.23;;
39778;SDS011;25454;49.878;8.618;2023-03-01T02:00:51;14.17;;;10.40;;
39778;SDS011;25454;49.878;8.618;2023-03-01T02:05:55;15.50;;;10.30;;
39778;SDS011;25454;49.878;8.618;2023-03-01T02:11:01;16.17;;;10.47;;
39778;SDS011;25454;49.878;8.618;2023-03-01T02:33:54;18.27;;;10.47;;
39778;SDS011;25454;49.878;8.618;2023-03-01T02:38:57;14.77;;;10.13;;
39778;SDS011;25454;49.878;8.618;2023-03-01T02:43:59;16.63;;;10.63;;
39778;SDS011;25454;49.878;8.618;2023-03-01T02:49:00;14.20;;;10.13;;
39778;SDS011;25454;49.878;8.618;2023-03-01T02:54:07;13.93;;;10.73;;
39778;SDS011;25454;49.878;8.618;2023-03-01T02:59:08;14.40;;;11.03;;
39778;SDS011;25454;49.878;8.618;2023-03-01T03:04:11;18.97;;;11.40;;
39778;SDS011;25454;49.878;8.618;2023-03-01T03:09:18;15.57;;;10.87;;
39778;SDS011;25454;49.878;8.618;2023-03-01T03:14:19;15.23;;;10.50;;
39778;SDS011;25454;49.878;8.618;2023-03-01T03:19:22;18.37;;;10.87;;
39778;SDS011;25454;49.878;8.618;2023-03-01T03:24:23;17.23;;;10.87;;
39778;SDS011;25454;49.878;8.618;2023-03-01T03:29:23;17.80;;;11.73;;
39778;SDS011;25454;49.878;8.618;2023-03-01T03:34:24;15.30;;;10.90;;
39778;SDS011;25454;49.878;8.618;2023-03-01T03:39:28;17.10;;;12.03;;
39778;SDS011;25454;49.878;8.618;2023-03-01T03:44:34;14.67;;;10.60;;
39778;SDS011;25454;49.878;8.618;2023-03-01T03:49:36;17.20;;;11.17;;
39778;SDS011;25454;49.878;8.618;2023-03-01T03:54:36;15.87;;;11.80;;
39778;SDS011;25454;49.878;8.618;2023-03-01T03:59:37;16.47;;;11.13;;
39778;SDS011;25454;49.878;8.618;2023-03-01T04:04:38;17.20;;;11.60;;
39778;SDS011;25454;49.878;8.618;2023-03-01T04:09:38;14.33;;;10.97;;
39778;SDS011;25454;49.878;8.618;2023-03-01T04:14:42;18.63;;;11.73;;
39778;SDS011;25454;49.878;8.618;2023-03-01T04:19:42;17.07;;;11.87;;
39778;SDS011;25454;49.878;8.618;2023-03-01T04:24:44;15.93;;;11.20;;
39778;SDS011;25454;49.878;8.618;2023-03-01T04:29:45;18.47;;;12.30;;
39778;SDS011;25454;49.878;8.618;2023-03-01T04:34:45;15.43;;;11.47;;
39778;SDS011;25454;49.878;8.618;2023-03-01T04:39:46;19.77;;;13.03;;
39778;SDS011;25454;49.878;8.618;2023-03-01T04:44:47;18.13;;;11.73;;
39778;SDS011;25454;49.878;8.618;2023-03-01T04:49:47;15.80;;;11.00;;
39778;SDS011;25454;49.878;8.618;2023-03-01T04:54:48;17.73;;;12.03;;
39778;SDS011;25454;49.878;8.618;2023-03-01T04:59:51;17.83;;;11.13;;
39778;SDS011;25454;49.878;8.618;2023-03-01T05:04:52;14.87;;;11.50;;
39778;SDS011;25454;49.878;8.618;2023-03-01T05:09:57;18.33;;;11.87;;
39778;SDS011;25454;49.878;8.618;2023-03-01T05:14:57;20.70;;;12.43;;
39778;SDS011;25454;49.878;8.618;2023-03-01T05:19:58;17.07;;;11.80;;
39778;SDS011;25454;49.878;8.618;2023-03-01T05:24:59;21.23;;;13.30;;
39778;SDS011;25454;49.878;8.618;2023-03-01T05:30:00;16.27;;;11.80;;
39778;SDS011;25454;49.878;8.618;2023-03-01T05:35:14;15.77;;;12.07;;
39778;SDS011;25454;49.878;8.618;2023-03-01T05:40:20;18.00;;;12.57;;
39778;SDS011;25454;49.878;8.618;2023-03-01T05:45:26;17.57;;;12.03;;
39778;SDS011;25454;49.878;8.618;2023-03-01T05:50:28;17.63;;;12.63;;
39778;SDS011;25454;49.878;8.618;2023-03-01T05:55:30;21.70;;;13.33;;
39778;SDS011;25454;49.878;8.618;2023-03-01T06:00:31;18.83;;;11.90;;
39778;SDS011;25454;49.878;8.618;2023-03-01T06:05:32;19.03;;;12.47;;
39778;SDS011;25454;49.878;8.618;2023-03-01T06:10:33;20.30;;;12.33;;
39778;SDS011;25454;49.878;8.618;2023-03-01T06:15:37;19.27;;;11.93;;
39778;SDS011;25454;49.878;8.618;2023-03-01T06:20:37;21.13;;;13.60;;
39778;SDS011;25454;49.878;8.618;2023-03-01T06:25:38;20.77;;;13.37;;
39778;SDS011;25454;49.878;8.618;2023-03-01T06:30:38;19.57;;;12.90;;
39778;SDS011;25454;49.878;8.618;2023-03-01T06:35:39;19.17;;;12.03;;
39778;SDS011;25454;49.878;8.618;2023-03-01T06:40:42;19.33;;;12.47;;
39778;SDS011;25454;49.878;8.618;2023-03-01T06:45:42;17.63;;;12.20;;
39778;SDS011;25454;49.878;8.618;2023-03-01T06:50:43;19.77;;;12.00;;
39778;SDS011;25454;49.878;8.618;2023-03-01T06:55:43;18.67;;;12.47;;
39778;SDS011;25454;49.878;8.618;2023-03-01T07:00:44;18.77;;;13.00;;
39778;SDS011;25454;49.878;8.618;2023-03-01T07:05:45;15.40;;;11.50;;
39778;SDS011;25454;49.878;8.618;2023-03-01T07:10:45;18.20;;;12.20;;
39778;SDS011;25454;49.878;8.618;2023-03-01T07:15:48;15.40;;;12.50;;
39778;SDS011;25454;49.878;8.618;2023-03-01T07:20:49;19.07;;;12.50;;
39778;SDS011;25454;49.878;8.618;2023-03-01T07:25:53;20.43;;;12.03;;
39778;SDS011;25454;49.878;8.618;2023-03-01T07:31:00;13.93;;;10.73;;
39778;SDS011;25454;49.878;8.618;2023-03-01T07:36:02;13.23;;;10.83;;
39778;SDS011;25454;49.878;8.618;2023-03-01T07:41:03;14.30;;;11.10;;
39778;SDS011;25454;49.878;8.618;2023-03-01T07:46:05;14.93;;;11.47;;
39778;SDS011;25454;49.878;8.618;2023-03-01T07:51:07;16.90;;;11.63;;
39778;SDS011;25454;49.878;8.618;2023-03-01T07:56:09;16.10;;;11.73;;
39778;SDS011;25454;49.878;8.618;2023-03-01T08:01:12;15.27;;;10.87;;
39778;SDS011;25454;49.878;8.618;2023-03-01T08:06:16;14.07;;;11.30;;
39778;SDS011;25454;49.878;8.618;2023-03-01T08:11:17;13.23;;;10.70;;
39778;SDS011;25454;49.878;8.618;2023-03-01T08:16:18;13.47;;;10.93;;
39778;SDS011;25454;49.878;8.618;2023-03-01T08:21:18;15.47;;;10.83;;
39778;SDS011;25454;49.878;8.618;2023-03-01T08:26:19;12.83;;;9.50;;
39778;SDS011;25454;49.878;8.618;2023-03-01T08:31:22;12.83;;;10.97;;
39778;SDS011;25454;49.878;8.618;2023-03-01T08:36:29;15.13;;;11.47;;
39778;SDS011;25454;49.878;8.618;2023-03-01T08:41:31;17.33;;;11.47;;
39778;SDS011;25454;49.878;8.618;2023-03-01T08:46:33;14.03;;;10.80;;
39778;SDS011;25454;49.878;8.618;2023-03-01T08:51:37;12.43;;;10.37;;
39778;SDS011;25454;49.878;8.618;2023-03-01T08:56:38;15.20;;;10.77;;
39778;SDS011;25454;49.878;8.618;2023-03-01T09:01:39;13.37;;;10.10;;
39778;SDS011;25454;49.878;8.618;2023-03-01T09:06:43;15.40;;;11.27;;
39778;SDS011;25454;49.878;8.618;2023-03-01T09:11:44;14.00;;;11.07;;
39778;SDS011;25454;49.878;8.618;2023-03-01T09:16:46;14.97;;;10.83;;
39778;SDS011;25454;49.878;8.618;2023-03-01T09:21:47;15.33;;;11.33;;
39778;SDS011;25454;49.878;8.618;2023-03-01T09:26:56;13.97;;;10.97;;
39778;SDS011;25454;49.878;8.618;2023-03-01T09:31:57;13.57;;;11.53;;
39778;SDS011;25454;49.878;8.618;2023-03-01T09:36:58;14.13;;;11.43;;
39778;SDS011;25454;49.878;8.618;2023-03-01T09:42:00;14.13;;;10.87;;
39778;SDS011;25454;49.878;8.618;2023-03-01T09:47:04;13.90;;;11.20;;
39778;SDS011;25454;49.878;8.618;2023-03-01T09:52:21;17.23;;;12.33;;
39778;SDS011;25454;49.878;8.618;2023-03-01T10:08:43;13.87;;;11.87;;
39778;SDS011;25454;49.878;8.618;2023-03-01T10:19:01;13.47;;;11.67;;
39778;SDS011;25454;49.878;8.618;2023-03-01T10:24:10;14.03;;;12.50;;
39778;SDS011;25454;49.878;8.618;2023-03-01T10:29:14;13.97;;;11.87;;
39778;SDS011;25454;49.878;8.618;2023-03-01T10:34:26;17.40;;;11.80;;
39778;SDS011;25454;49.878;8.618;2023-03-01T10:39:34;13.53;;;11.97;;
39778;SDS011;25454;49.878;8.618;2023-03-01T10:44:43;16.83;;;12.73;;
39778;SDS011;25454;49.878;8.618;2023-03-01T10:50:06;16.27;;;12.57;;
39778;SDS011;25454;49.878;8.618;2023-03-01T10:55:30;14.77;;;12.03;;
39778;SDS011;25454;49.878;8.618;2023-03-01T11:00:31;13.60;;;11.80;;
39778;SDS011;25454;49.878;8.618;2023-03-01T11:05:33;16.73;;;12.30;;
39778;SDS011;25454;49.878;8.618;2023-03-01T11:10:34;13.00;;;11.50;;
39778;SDS011;25454;49.878;8.618;2023-03-01T11:15:36;19.63;;;12.37;;
39778;SDS011;25454;49.878;8.618;2023-03-01T11:20:37;13.60;;;11.37;;
39778;SDS011;25454;49.878;8.618;2023-03-01T11:25:42;13.77;;;12.07;;
39778;SDS011;25454;49.878;8.618;2023-03-01T11:30:55;12.97;;;11.67;;
39778;SDS011;25454;49.878;8.618;2023-03-01T11:41:42;14.57;;;11.43;;
39778;SDS011;25454;49.878;8.618;2023-03-01T11:47:02;15.03;;;11.20;;
39778;SDS011;25454;49.878;8.618;2023-03-01T11:52:21;14.83;;;11.53;;
39778;SDS011;25454;49.878;8.618;2023-03-01T12:08:36;13.80;;;10.40;;
39778;SDS011;25454;49.878;8.618;2023-03-01T12:41:15;10.60;;;8.47;;
39778;SDS011;25454;49.878;8.618;2023-03-01T12:51:33;12.00;;;9.23;;
39778;SDS011;25454;49.878;8.618;2023-03-01T12:56:36;10.57;;;8.70;;
39778;SDS011;25454;49.878;8.618;2023-03-01T13:01:49;14.57;;;8.97;;
39778;SDS011;25454;49.878;8.618;2023-03-01T13:17:55;11.33;;;7.80;;
39778;SDS011;25454;49.878;8.618;2023-03-01T13:23:39;11.50;;;8.97;;
39778;SDS011;25454;49.878;8.618;2023-03-01T13:44:39;12.43;;;9.17;;
39778;SDS011;25454;49.878;8.618;2023-03-01T13:54:59;9.93;;;7.43;;
39778;SDS011;25454;49.878;8.618;2023-03-01T14:00:04;10.93;;;8.67;;
39778;SDS011;25454;49.878;8.618;2023-03-01T14:05:08;12.33;;;7.70;;
39778;SDS011;25454;49.878;8.618;2023-03-01T14:21:26;12.60;;;8.00;;
39778;SDS011;25454;49.878;8.618;2023-03-01T14:26:26;10.43;;;8.67;;
39778;SDS011;25454;49.878;8.618;2023-03-01T14:36:42;10.87;;;7.80;;
39778;SDS011;25454;49.878;8.618;2023-03-01T14:41:42;11.83;;;7.90;;
39778;SDS011;25454;49.878;8.618;2023-03-01T14:46:44;10.88;;;8.15;;
39778;SDS011;25454;49.878;8.618;2023-03-01T14:51:51;10.70;;;7.33;;
39778;SDS011;25454;49.878;8.618;2023-03-01T14:56:59;13.17;;;8.33;;
39778;SDS011;25454;49.878;8.618;2023-03-01T15:02:00;11.63;;;8.37;;
39778;SDS011;25454;49.878;8.618;2023-03-01T15:07:01;12.07;;;8.60;;
39778;SDS011;25454;49.878;8.618;2023-03-01T15:22:31;16.37;;;8.50;;
39778;SDS011;25454;49.878;8.618;2023-03-01T15:27:32;12.73;;;8.30;;
39778;SDS011;25454;49.878;8.618;2023-03-01T15:32:34;11.93;;;8.37;;
39778;SDS011;25454;49.878;8.618;2023-03-01T15:37:45;10.43;;;8.27;;
39778;SDS011;25454;49.878;8.618;2023-03-01T15:42:48;16.37;;;8.80;;
39778;SDS011;25454;49.878;8.618;2023-03-01T15:47:52;11.53;;;8.40;;
39778;SDS011;25454;49.878;8.618;2023-03-01T15:52:59;10.33;;;7.67;;
39778;SDS011;25454;49.878;8.618;2023-03-01T15:58:05;12.57;;;7.93;;
39778;SDS011;25454;49.878;8.618;2023-03-01T16:03:18;11.30;;;7.63;;
39778;SDS011;25454;49.878;8.618;2023-03-01T16:08:21;10.60;;;7.50;;
39778;SDS011;25454;49.878;8.618;2023-03-01T16:13:21;11.40;;;7.73;;
39778;SDS011;25454;49.878;8.618;2023-03-01T16:18:22;12.80;;;8.47;;
39778;SDS011;25454;49.878;8.618;2023-03-01T16:23:23;10.20;;;8.07;;
39778;SDS011;25454;49.878;8.618;2023-03-01T16:28:24;13.17;;;8.47;;
39778;SDS011;25454;49.878;8.618;2023-03-01T16:33:26;12.13;;;8.97;;
39778;SDS011;25454;49.878;8.618;2023-03-01T16:38:26;14.07;;;8.23;;
39778;SDS011;25454;49.878;8.618;2023-03-01T16:43:28;13.27;;;8.83;;
39778;SDS011;25454;49.878;8.618;2023-03-01T16:48:29;11.53;;;9.23;;
39778;SDS011;25454;49.878;8.618;2023-03-01T16:53:30;11.10;;;9.03;;
39778;SDS011;25454;49.878;8.618;2023-03-01T16:58:30;13.10;;;9.50;;
39778;SDS011;25454;49.878;8.618;2023-03-01T17:03:31;13.90;;;9.73;;
39778;SDS011;25454;49.878;8.618;2023-03-01T17:08:32;14.40;;;10.20;;
39778;SDS011;25454;49.878;8.618;2023-03-01T17:13:33;14.60;;;10.07;;
39778;SDS011;25454;49.878;8.618;2023-03-01T17:18:35;15.10;;;10.47;;
39778;SDS011;25454;49.878;8.618;2023-03-01T17:23:36;14.97;;;10.00;;
39778;SDS011;25454;49.878;8.618;2023-03-01T17:28:39;14.77;;;10.03;;
39778;SDS011;25454;49.878;8.618;2023-03-01T17:33:40;15.27;;;11.10;;
39778;SDS011;25454;49.878;8.618;2023-03-01T17:38:40;16.13;;;10.83;;
39778;SDS011;25454;49.878;8.618;2023-03-01T17:43:41;16.80;;;10.80;;
39778;SDS011;25454;49.878;8.618;2023-03-01T17:48:42;14.40;;;10.50;;
39778;SDS011;25454;49.878;8.618;2023-03-01T17:53:42;14.10;;;10.33;;
39778;SDS011;25454;49.878;8.618;2023-03-01T17:58:43;15.50;;;10.73;;
39778;SDS011;25454;49.878;8.618;2023-03-01T18:03:46;14.83;;;11.30;;
39778;SDS011;25454;49.878;8.618;2023-03-01T18:08:46;18.50;;;11.80;;
39778;SDS011;25454;49.878;8.618;2023-03-01T18:13:49;14.37;;;10.93;;
39778;SDS011;25454;49.878;8.618;2023-03-01T18:18:54;16.20;;;10.43;;
39778;SDS011;25454;49.878;8.618;2023-03-01T18:23:55;15.33;;;10.50;;
39778;SDS011;25454;49.878;8.618;2023-03-01T18:28:56;14.87;;;10.43;;
39778;SDS011;25454;49.878;8.618;2023-03-01T18:33:59;15.67;;;10.50;;
39778;SDS011;25454;49.878;8.618;2023-03-01T18:39:01;13.67;;;9.90;;
39778;SDS011;25454;49.878;8.618;2023-03-01T18:44:06;15.87;;;10.03;;
39778;SDS011;25454;49.878;8.618;2023-03-01T18:49:07;18.20;;;10.90;;
39778;SDS011;25454;49.878;8.618;2023-03-01T18:54:12;16.70;;;10.10;;
39778;SDS011;25454;49.878;8.618;2023-03-01T18:59:13;16.17;;;10.73;;
39778;SDS011;25454;49.878;8.618;2023-03-01T19:04:13;15.70;;;10.33;;
39778;SDS011;25454;49.878;8.618;2023-03-01T19:09:14;16.30;;;10.90;;
39778;SDS011;25454;49.878;8.618;2023-03-01T19:14:15;13.87;;;9.93;;
39778;SDS011;25454;49.878;8.618;2023-03-01T19:19:15;14.83;;;10.50;;
39778;SDS011;25454;49.878;8.618;2023-03-01T19:24:16;14.03;;;9.97;;
39778;SDS011;25454;49.878;8.618;2023-03-01T19:29:16;14.20;;;9.67;;
39778;SDS011;25454;49.878;8.618;2023-03-01T19:34:17;16.27;;;10.27;;
39778;SDS011;25454;49.878;8.618;2023-03-01T19:39:18;14.27;;;10.10;;
39778;SDS011;25454;49.878;8.618;2023-03-01T19:44:18;13.70;;;10.50;;
39778;SDS011;25454;49.878;8.618;2023-03-01T19:49:24;15.70;;;9.43;;
39778;SDS011;25454;49.878;8.618;2023-03-01T19:54:25;16.20;;;10.20;;
39778;SDS011;25454;49.878;8.618;2023-03-01T19:59:30;14.73;;;9.73;;
39778;SDS011;25454;49.878;8.618;2023-03-01T20:04:31;17.73;;;10.27;;
39778;SDS011;25454;49.878;8.618;2023-03-01T20:09:32;16.03;;;10.13;;
39778;SDS011;25454;49.878;8.618;2023-03-01T20:14:32;13.27;;;9.87;;
39778;SDS011;25454;49.878;8.618;2023-03-01T20:19:33;14.90;;;10.13;;
39778;SDS011;25454;49.878;8.618;2023-03-01T20:24:33;16.70;;;10.93;;
39778;SDS011;25454;49.878;8.618;2023-03-01T20:29:34;16.27;;;11.47;;
39778;SDS011;25454;49.878;8.618;2023-03-01T20:34:35;15.20;;;10.57;;
39778;SDS011;25454;49.878;8.618;2023-03-01T20:39:36;15.97;;;11.23;;
39778;SDS011;25454;49.878;8.618;2023-03-01T20:44:37;14.97;;;10.60;;
39778;SDS011;25454;49.878;8.618;2023-03-01T20:49:43;17.60;;;11.13;;
39778;SDS011;25454;49.878;8.618;2023-03-01T20:54:44;16.80;;;10.47;;
39778;SDS011;25454;49.878;8.618;2023-03-01T20:59:45;14.33;;;9.83;;
39778;SDS011;25454;49.878;8.618;2023-03-01T21:04:46;15.40;;;11.03;;
39778;SDS011;25454;49.878;8.618;2023-03-01T21:09:46;17.30;;;11.20;;
39778;SDS011;25454;49.878;8.618;2023-03-01T21:14:47;17.60;;;11.53;;
39778;SDS011;25454;49.878;8.618;2023-03-01T21:19:48;17.77;;;10.60;;
39778;SDS011;25454;49.878;8.618;2023-03-01T21:24:49;19.13;;;11.33;;
39778;SDS011;25454;49.878;8.618;2023-03-01T21:29:50;18.03;;;11.00;;
39778;SDS011;25454;49.878;8.618;2023-03-01T21:34:51;19.03;;;11.97;;
39778;SDS011;25454;49.878;8.618;2023-03-01T21:39:57;21.50;;;12.30;;
39778;SDS011;25454;49.878;8.618;2023-03-01T21:44:57;18.60;;;12.67;;
39778;SDS011;25454;49.878;8.618;2023-03-01T21:49:58;20.40;;;12.50;;
39778;SDS011;25454;49.878;8.618;2023-03-01T21:54:58;21.50;;;12.97;;
39778;SDS011;25454;49.878;8.618;2023-03-01T22:00:02;16.50;;;11.20;;
39778;SDS011;25454;49.878;8.618;2023-03-01T22:05:06;17.57;;;10.90;;
39778;SDS011;25454;49.878;8.618;2023-03-01T22:10:07;20.70;;;12.23;;
39778;SDS011;25454;49.878;8.618;2023-03-01T22:15:08;19.20;;;11.80;;
39778;SDS011;25454;49.878;8.618;2023-03-01T22:20:09;19.97;;;12.47;;
39778;SDS011;25454;49.878;8.618;2023-03-01T22:25:11;16.70;;;12.20;;
39778;SDS011;25454;49.878;8.618;2023-03-01T22:30:13;17.73;;;11.83;;
39778;SDS011;25454;49.878;8.618;2023-03-01T22:35:14;16.27;;;11.67;;
39778;SDS011;25454;49.878;8.618;2023-03-01T22:40:14;18.67;;;12.13;;
39778;SDS011;25454;49.878;8.618;2023-03-01T22:45:15;18.67;;;12.53;;
39778;SDS011;25454;49.878;8.618;2023-03-01T22:50:16;21.37;;;12.17;;
39778;SDS011;25454;49.878;8.618;2023-03-01T22:55:17;18.43;;;11.80;;
39778;SDS011;25454;49.878;8.618;2023-03-01T23:00:19;21.10;;;12.20;;
39778;SDS011;25454;49.878;8.618;2023-03-01T23:05:20;19.83;;;11.60;;
39778;SDS011;25454;49.878;8.618;2023-03-01T23:10:21;21.20;;;12.33;;
39778;SDS011;25454;49.878;8.618;2023-03-01T23:15:22;22.00;;;12.70;;
39778;SDS011;25454;49.878;8.618;2023-03-01T23:20:22;23.63;;;12.60;;
39778;SDS011;25454;49.878;8.618;2023-03-01T23:25:23;20.37;;;11.93;;
39778;SDS011;25454;49.878;8.618;2023-03-01T23:30:24;18.87;;;12.20;;
39778;SDS011;25454;49.878;8.618;2023-03-01T23:35:25;18.93;;;11.57;;
39778;SDS011;25454;49.878;8.618;2023-03-01T23:40:26;21.17;;;11.83;;
39778;SDS011;25454;49.878;8.618;2023-03-01T23:45:26;21.47;;;11.80;;
39778;SDS011;25454;49.878;8.618;2023-03-01T23:50:27;16.60;;;11.07;;
39778;SDS011;25454;49.878;8.618;2023-03-01T23:55:27;20.27;;;11.90;;
